sensor_id;sensor_type;location;lat;lon;timestamp;pressure;altitude;pressure_sealevel;temperature;humidity
49825;BME280;35714;55.708;37.478;2024-03-25T00:00:24;97627.31;;;4.50;66.57
49825;BME280;35714;55.708;37.478;2024-03-25T00:02:51;97656.06;;;4.66;66.63
49825;BME280;35714;55.708;37.478;2024-03-25T00:05:16;97663.72;;;4.46;67.49
49825;BME280;35714;55.708;37.478;2024-03-25T00:07:49;97662.59;;;4.42;67.88
49825;BME280;35714;55.708;37.478;2024-03-25T00:10:14;97668.69;;;4.54;67.43
49825;BME280;35714;55.708;37.478;2024-03-25T00:12:40;97680.28;;;4.55;67.16
49825;BME280;35714;55.708;37.478;2024-03-25T00:15:06;97690.59;;;4.34;67.72
49825;BME280;35714;55.708;37.478;2024-03-25T00:17:33;97690.16;;;4.25;68.36
49825;BME280;35714;55.708;37.478;2024-03-25T00:19:59;97689.66;;;4.28;68.16
49825;BME280;35714;55.708;37.478;2024-03-25T00:22:25;97691.66;;;4.21;68.42
49825;BME280;35714;55.708;37.478;2024-03-25T00:24:51;97683.75;;;4.26;67.44
49825;BME280;35714;55.708;37.478;2024-03-25T00:27:17;97690.94;;;4.26;67.45
49825;BME280;35714;55.708;37.478;2024-03-25T00:29:44;97711.84;;;4.24;66.68
49825;BME280;35714;55.708;37.478;2024-03-25T00:32:10;97688.88;;;4.16;66.66
49825;BME280;35714;55.708;37.478;2024-03-25T00:34:36;97710.25;;;4.11;67.40
49825;BME280;35714;55.708;37.478;2024-03-25T00:37:02;97701.84;;;4.07;66.72
49825;BME280;35714;55.708;37.478;2024-03-25T00:39:29;97691.47;;;3.99;67.26
49825;BME280;35714;55.708;37.478;2024-03-25T00:41:58;97689.00;;;3.97;67.55
49825;BME280;35714;55.708;37.478;2024-03-25T00:44:23;97701.66;;;3.85;68.14
49825;BME280;35714;55.708;37.478;2024-03-25T00:46:50;97707.47;;;3.82;67.96
49825;BME280;35714;55.708;37.478;2024-03-25T00:49:17;97702.34;;;3.81;67.89
49825;BME280;35714;55.708;37.478;2024-03-25T00:51:42;97706.28;;;3.78;67.95
49825;BME280;35714;55.708;37.478;2024-03-25T00:54:08;97710.25;;;3.87;67.64
49825;BME280;35714;55.708;37.478;2024-03-25T00:56:34;97726.56;;;3.97;67.19
49825;BME280;35714;55.708;37.478;2024-03-25T00:59:00;97722.13;;;3.91;67.08
49825;BME280;35714;55.708;37.478;2024-03-25T01:01:29;97728.78;;;3.77;67.51
49825;BME280;35714;55.708;37.478;2024-03-25T01:03:55;97735.22;;;3.76;67.77
49825;BME280;35714;55.708;37.478;2024-03-25T01:06:21;97749.66;;;3.75;68.17
49825;BME280;35714;55.708;37.478;2024-03-25T01:08:46;97749.75;;;3.80;67.55
49825;BME280;35714;55.708;37.478;2024-03-25T01:11:12;97748.00;;;3.74;67.85
49825;BME280;35714;55.708;37.478;2024-03-25T01:13:38;97766.53;;;3.75;67.18
49825;BME280;35714;55.708;37.478;2024-03-25T01:16:04;97764.13;;;3.86;66.75
49825;BME280;35714;55.708;37.478;2024-03-25T01:18:29;97764.13;;;3.86;66.54
49825;BME280;35714;55.708;37.478;2024-03-25T01:20:55;97762.00;;;3.76;66.83
49825;BME280;35714;55.708;37.478;2024-03-25T01:23:20;97767.91;;;3.66;67.43
49825;BME280;35714;55.708;37.478;2024-03-25T01:25:46;97767.91;;;3.66;67.22
49825;BME280;35714;55.708;37.478;2024-03-25T01:28:12;97766.03;;;3.55;67.91
49825;BME280;35714;55.708;37.478;2024-03-25T01:30:38;97766.88;;;3.55;68.17
49825;BME280;35714;55.708;37.478;2024-03-25T01:33:05;97770.16;;;3.57;67.86
49825;BME280;35714;55.708;37.478;2024-03-25T01:35:31;97760.84;;;3.60;67.83
49825;BME280;35714;55.708;37.478;2024-03-25T01:37:57;97765.25;;;3.54;68.20
49825;BME280;35714;55.708;37.478;2024-03-25T01:40:23;97772.69;;;3.52;68.06
49825;BME280;35714;55.708;37.478;2024-03-25T01:42:59;97763.25;;;3.50;67.92
49825;BME280;35714;55.708;37.478;2024-03-25T01:45:25;97789.13;;;3.68;66.50
49825;BME280;35714;55.708;37.478;2024-03-25T01:47:51;97784.91;;;3.48;66.75
49825;BME280;35714;55.708;37.478;2024-03-25T01:50:18;97784.56;;;3.56;66.61
49825;BME280;35714;55.708;37.478;2024-03-25T01:52:44;97787.16;;;3.63;66.19
49825;BME280;35714;55.708;37.478;2024-03-25T01:55:17;97801.84;;;3.60;65.91
49825;BME280;35714;55.708;37.478;2024-03-25T01:57:44;97806.00;;;3.56;66.62
49825;BME280;35714;55.708;37.478;2024-03-25T02:00:11;97799.09;;;3.37;67.49
49825;BME280;35714;55.708;37.478;2024-03-25T02:02:45;97800.47;;;3.28;68.16
49825;BME280;35714;55.708;37.478;2024-03-25T02:05:14;97801.97;;;3.23;67.88
49825;BME280;35714;55.708;37.478;2024-03-25T02:07:40;97810.69;;;3.19;68.71
49825;BME280;35714;55.708;37.478;2024-03-25T02:10:08;97813.00;;;3.15;69.19
49825;BME280;35714;55.708;37.478;2024-03-25T02:12:37;97820.56;;;3.18;69.44
49825;BME280;35714;55.708;37.478;2024-03-25T02:15:06;97811.06;;;3.22;69.22
49825;BME280;35714;55.708;37.478;2024-03-25T02:17:32;97823.09;;;3.32;69.18
49825;BME280;35714;55.708;37.478;2024-03-25T02:19:58;97826.94;;;3.36;68.64
49825;BME280;35714;55.708;37.478;2024-03-25T02:22:24;97828.56;;;3.37;68.30
49825;BME280;35714;55.708;37.478;2024-03-25T02:24:50;97828.13;;;3.40;67.89
49825;BME280;35714;55.708;37.478;2024-03-25T02:27:18;97809.41;;;3.21;67.74
49825;BME280;35714;55.708;37.478;2024-03-25T02:29:43;97831.13;;;3.32;67.73
49825;BME280;35714;55.708;37.478;2024-03-25T02:32:10;97854.47;;;3.43;67.73
49825;BME280;35714;55.708;37.478;2024-03-25T02:34:37;97830.94;;;3.45;66.46
49825;BME280;35714;55.708;37.478;2024-03-25T02:37:04;97852.34;;;3.45;66.54
49825;BME280;35714;55.708;37.478;2024-03-25T02:39:31;97833.94;;;3.37;66.63
49825;BME280;35714;55.708;37.478;2024-03-25T02:41:57;97847.09;;;3.38;67.41
49825;BME280;35714;55.708;37.478;2024-03-25T02:44:23;97850.13;;;3.42;66.96
49825;BME280;35714;55.708;37.478;2024-03-25T02:46:49;97856.53;;;3.41;66.93
49825;BME280;35714;55.708;37.478;2024-03-25T02:49:15;97869.16;;;3.52;66.31
49825;BME280;35714;55.708;37.478;2024-03-25T02:51:40;97870.75;;;3.41;66.33
49825;BME280;35714;55.708;37.478;2024-03-25T02:54:06;97881.69;;;3.40;66.45
49825;BME280;35714;55.708;37.478;2024-03-25T02:56:34;97886.84;;;3.41;66.83
49825;BME280;35714;55.708;37.478;2024-03-25T02:58:59;97904.75;;;3.41;67.20
49825;BME280;35714;55.708;37.478;2024-03-25T03:01:25;97900.22;;;3.41;66.99
49825;BME280;35714;55.708;37.478;2024-03-25T03:03:51;97900.13;;;3.48;66.87
49825;BME280;35714;55.708;37.478;2024-03-25T03:06:17;97891.97;;;3.43;67.00
49825;BME280;35714;55.708;37.478;2024-03-25T03:08:44;97888.69;;;3.41;66.99
49825;BME280;35714;55.708;37.478;2024-03-25T03:11:10;97902.06;;;3.41;67.09
49825;BME280;35714;55.708;37.478;2024-03-25T03:13:36;97893.59;;;3.44;66.50
49825;BME280;35714;55.708;37.478;2024-03-25T03:16:01;97909.59;;;3.51;66.69
49825;BME280;35714;55.708;37.478;2024-03-25T03:18:27;97908.75;;;3.50;66.53
49825;BME280;35714;55.708;37.478;2024-03-25T03:20:53;97912.06;;;3.52;66.09
49825;BME280;35714;55.708;37.478;2024-03-25T03:23:25;97912.50;;;3.49;66.29
49825;BME280;35714;55.708;37.478;2024-03-25T03:25:50;97920.66;;;3.54;66.76
49825;BME280;35714;55.708;37.478;2024-03-25T03:28:17;97920.44;;;3.56;66.28
49825;BME280;35714;55.708;37.478;2024-03-25T03:30:43;97919.03;;;3.53;66.12
49825;BME280;35714;55.708;37.478;2024-03-25T03:33:09;97926.91;;;3.67;65.91
49825;BME280;35714;55.708;37.478;2024-03-25T03:35:35;97941.47;;;3.71;65.78
49825;BME280;35714;55.708;37.478;2024-03-25T03:38:01;97933.19;;;3.72;64.93
49825;BME280;35714;55.708;37.478;2024-03-25T03:40:28;97941.63;;;3.76;64.84
49825;BME280;35714;55.708;37.478;2024-03-25T03:42:55;97947.22;;;3.74;64.80
49825;BME280;35714;55.708;37.478;2024-03-25T03:45:23;97944.75;;;3.73;65.17
49825;BME280;35714;55.708;37.478;2024-03-25T03:47:49;97948.03;;;3.75;65.17
49825;BME280;35714;55.708;37.478;2024-03-25T03:50:15;97958.41;;;3.83;64.56
49825;BME280;35714;55.708;37.478;2024-03-25T03:52:40;97957.84;;;3.81;64.37
49825;BME280;35714;55.708;37.478;2024-03-25T03:55:06;97969.13;;;3.83;64.63
49825;BME280;35714;55.708;37.478;2024-03-25T03:57:32;97969.75;;;3.85;64.25
49825;BME280;35714;55.708;37.478;2024-03-25T03:59:58;97978.81;;;3.84;64.11
49825;BME280;35714;55.708;37.478;2024-03-25T04:02:28;97969.75;;;3.85;63.82
49825;BME280;35714;55.708;37.478;2024-03-25T04:04:56;97982.53;;;3.83;64.26
49825;BME280;35714;55.708;37.478;2024-03-25T04:07:22;97985.63;;;3.87;63.79
49825;BME280;35714;55.708;37.478;2024-03-25T04:09:53;97989.81;;;3.94;62.94
49825;BME280;35714;55.708;37.478;2024-03-25T04:12:19;97986.50;;;3.81;63.36
49825;BME280;35714;55.708;37.478;2024-03-25T04:14:48;97995.84;;;3.90;63.11
49825;BME280;35714;55.708;37.478;2024-03-25T04:17:14;97994.91;;;3.84;63.48
49825;BME280;35714;55.708;37.478;2024-03-25T04:19:41;97977.38;;;3.70;63.15
49825;BME280;35714;55.708;37.478;2024-03-25T04:22:07;98005.50;;;3.79;63.78
49825;BME280;35714;55.708;37.478;2024-03-25T04:24:32;97998.84;;;3.82;63.56
49825;BME280;35714;55.708;37.478;2024-03-25T04:27:00;98007.75;;;3.82;63.63
49825;BME280;35714;55.708;37.478;2024-03-25T04:29:25;98018.00;;;3.85;63.65
49825;BME280;35714;55.708;37.478;2024-03-25T04:31:51;98018.16;;;3.90;63.15
49825;BME280;35714;55.708;37.478;2024-03-25T04:34:17;98028.25;;;3.88;62.84
49825;BME280;35714;55.708;37.478;2024-03-25T04:36:42;98024.53;;;3.89;62.92
49825;BME280;35714;55.708;37.478;2024-03-25T04:39:08;98017.53;;;3.88;62.86
49825;BME280;35714;55.708;37.478;2024-03-25T04:41:33;98030.00;;;3.83;63.09
49825;BME280;35714;55.708;37.478;2024-03-25T04:43:59;98031.31;;;3.92;63.57
49825;BME280;35714;55.708;37.478;2024-03-25T04:46:25;98040.19;;;3.92;63.08
49825;BME280;35714;55.708;37.478;2024-03-25T04:48:50;98045.09;;;3.95;63.32
49825;BME280;35714;55.708;37.478;2024-03-25T04:51:16;98045.22;;;4.01;63.04
49825;BME280;35714;55.708;37.478;2024-03-25T04:53:42;98046.41;;;4.05;62.47
49825;BME280;35714;55.708;37.478;2024-03-25T04:56:07;98059.81;;;4.05;62.08
49825;BME280;35714;55.708;37.478;2024-03-25T04:58:33;98060.28;;;4.02;62.41
49825;BME280;35714;55.708;37.478;2024-03-25T05:00:59;98053.88;;;4.03;62.42
49825;BME280;35714;55.708;37.478;2024-03-25T05:03:24;98070.56;;;4.05;62.51
49825;BME280;35714;55.708;37.478;2024-03-25T05:05:50;98071.75;;;4.09;62.15
49825;BME280;35714;55.708;37.478;2024-03-25T05:08:16;98070.84;;;4.15;62.14
49825;BME280;35714;55.708;37.478;2024-03-25T05:10:41;98078.41;;;4.18;62.12
49825;BME280;35714;55.708;37.478;2024-03-25T05:13:07;98081.84;;;4.25;61.89
49825;BME280;35714;55.708;37.478;2024-03-25T05:15:33;98091.09;;;4.29;62.06
49825;BME280;35714;55.708;37.478;2024-03-25T05:17:58;98084.19;;;4.33;61.99
49825;BME280;35714;55.708;37.478;2024-03-25T05:20:24;98098.94;;;4.43;62.06
49825;BME280;35714;55.708;37.478;2024-03-25T05:22:52;98102.94;;;4.52;61.15
49825;BME280;35714;55.708;37.478;2024-03-25T05:25:17;98103.06;;;4.57;61.10
49825;BME280;35714;55.708;37.478;2024-03-25T05:27:43;98100.75;;;4.61;61.24
49825;BME280;35714;55.708;37.478;2024-03-25T05:30:09;98102.75;;;4.65;61.70
49825;BME280;35714;55.708;37.478;2024-03-25T05:32:35;98115.75;;;4.80;61.11
49825;BME280;35714;55.708;37.478;2024-03-25T05:35:01;98119.63;;;4.96;60.66
49825;BME280;35714;55.708;37.478;2024-03-25T05:37:28;98126.53;;;5.04;59.87
49825;BME280;35714;55.708;37.478;2024-03-25T05:39:58;98122.94;;;5.10;58.90
49825;BME280;35714;55.708;37.478;2024-03-25T05:42:23;98123.63;;;5.05;58.94
49825;BME280;35714;55.708;37.478;2024-03-25T05:44:49;98122.53;;;4.95;59.50
49825;BME280;35714;55.708;37.478;2024-03-25T05:47:15;98128.66;;;5.02;59.44
49825;BME280;35714;55.708;37.478;2024-03-25T05:49:40;98132.97;;;5.15;59.28
49825;BME280;35714;55.708;37.478;2024-03-25T05:52:06;98136.97;;;5.24;58.79
49825;BME280;35714;55.708;37.478;2024-03-25T05:54:32;98129.13;;;5.34;58.44
49825;BME280;35714;55.708;37.478;2024-03-25T05:56:58;98130.81;;;5.47;58.32
49825;BME280;35714;55.708;37.478;2024-03-25T05:59:24;98140.25;;;5.73;57.05
49825;BME280;35714;55.708;37.478;2024-03-25T06:01:49;98137.88;;;5.89;55.88
49825;BME280;35714;55.708;37.478;2024-03-25T06:04:15;98148.91;;;5.99;55.26
49825;BME280;35714;55.708;37.478;2024-03-25T06:06:41;98151.00;;;5.97;54.75
49825;BME280;35714;55.708;37.478;2024-03-25T06:09:06;98157.50;;;6.25;54.69
49825;BME280;35714;55.708;37.478;2024-03-25T06:11:33;98156.75;;;6.41;53.42
49825;BME280;35714;55.708;37.478;2024-03-25T06:13:58;98158.69;;;6.29;53.70
49825;BME280;35714;55.708;37.478;2024-03-25T06:16:24;98165.91;;;6.40;54.58
49825;BME280;35714;55.708;37.478;2024-03-25T06:18:52;98160.00;;;6.84;53.97
49825;BME280;35714;55.708;37.478;2024-03-25T06:21:18;98171.84;;;7.00;52.16
49825;BME280;35714;55.708;37.478;2024-03-25T06:23:43;98177.66;;;7.09;51.49
49825;BME280;35714;55.708;37.478;2024-03-25T06:26:09;98196.63;;;7.14;51.65
49825;BME280;35714;55.708;37.478;2024-03-25T06:28:34;98190.09;;;7.27;51.40
49825;BME280;35714;55.708;37.478;2024-03-25T06:31:00;98199.84;;;7.62;50.42
49825;BME280;35714;55.708;37.478;2024-03-25T06:33:44;98203.13;;;8.03;50.80
49825;BME280;35714;55.708;37.478;2024-03-25T06:36:29;98201.69;;;8.56;48.92
49825;BME280;35714;55.708;37.478;2024-03-25T06:38:54;98200.03;;;8.99;47.72
49825;BME280;35714;55.708;37.478;2024-03-25T06:41:20;98210.59;;;9.33;46.30
49825;BME280;35714;55.708;37.478;2024-03-25T06:43:46;98211.28;;;9.51;47.48
49825;BME280;35714;55.708;37.478;2024-03-25T06:46:12;98220.56;;;9.92;45.79
49825;BME280;35714;55.708;37.478;2024-03-25T06:48:37;98223.69;;;10.17;44.68
49825;BME280;35714;55.708;37.478;2024-03-25T06:51:05;98230.72;;;10.18;44.68
49825;BME280;35714;55.708;37.478;2024-03-25T06:53:31;98230.34;;;9.99;45.14
49825;BME280;35714;55.708;37.478;2024-03-25T06:56:00;98242.44;;;9.86;43.35
49825;BME280;35714;55.708;37.478;2024-03-25T06:58:28;98235.13;;;9.54;44.67
49825;BME280;35714;55.708;37.478;2024-03-25T07:00:55;98235.66;;;9.51;45.89
49825;BME280;35714;55.708;37.478;2024-03-25T07:03:22;98243.41;;;9.74;45.95
49825;BME280;35714;55.708;37.478;2024-03-25T07:05:50;98251.09;;;9.83;43.93
49825;BME280;35714;55.708;37.478;2024-03-25T07:08:19;98263.06;;;9.60;43.25
49825;BME280;35714;55.708;37.478;2024-03-25T07:10:45;98258.44;;;9.28;43.74
49825;BME280;35714;55.708;37.478;2024-03-25T07:13:11;98273.38;;;8.86;44.65
49825;BME280;35714;55.708;37.478;2024-03-25T07:15:38;98277.50;;;8.66;45.44
49825;BME280;35714;55.708;37.478;2024-03-25T07:18:04;98275.13;;;8.53;46.25
49825;BME280;35714;55.708;37.478;2024-03-25T07:20:30;98276.16;;;8.69;47.14
49825;BME280;35714;55.708;37.478;2024-03-25T07:22:57;98275.38;;;9.18;45.19
49825;BME280;35714;55.708;37.478;2024-03-25T07:25:23;98270.53;;;9.20;44.99
49825;BME280;35714;55.708;37.478;2024-03-25T07:27:49;98278.06;;;9.18;44.58
49825;BME280;35714;55.708;37.478;2024-03-25T07:30:15;98282.75;;;9.00;45.06
49825;BME280;35714;55.708;37.478;2024-03-25T07:32:41;98282.25;;;9.03;44.65
49825;BME280;35714;55.708;37.478;2024-03-25T07:35:07;98286.59;;;9.05;45.88
49825;BME280;35714;55.708;37.478;2024-03-25T07:37:35;98283.03;;;9.26;45.59
49825;BME280;35714;55.708;37.478;2024-03-25T07:40:01;98294.56;;;9.71;45.05
49825;BME280;35714;55.708;37.478;2024-03-25T07:42:27;98302.72;;;10.08;43.31
49825;BME280;35714;55.708;37.478;2024-03-25T07:44:52;98315.66;;;10.81;41.88
49825;BME280;35714;55.708;37.478;2024-03-25T07:47:18;98305.53;;;11.19;42.47
49825;BME280;35714;55.708;37.478;2024-03-25T07:49:44;98305.56;;;11.40;41.17
49825;BME280;35714;55.708;37.478;2024-03-25T07:52:10;98311.53;;;11.37;40.61
49825;BME280;35714;55.708;37.478;2024-03-25T07:54:36;98315.25;;;11.15;40.72
49825;BME280;35714;55.708;37.478;2024-03-25T07:57:04;98320.13;;;11.08;42.08
49825;BME280;35714;55.708;37.478;2024-03-25T07:59:30;98325.00;;;11.06;40.09
49825;BME280;35714;55.708;37.478;2024-03-25T08:01:55;98318.38;;;10.81;41.08
49825;BME280;35714;55.708;37.478;2024-03-25T08:04:21;98326.03;;;11.00;42.23
49825;BME280;35714;55.708;37.478;2024-03-25T08:06:47;98333.06;;;11.85;39.70
49825;BME280;35714;55.708;37.478;2024-03-25T08:09:12;98326.56;;;11.81;38.64
49825;BME280;35714;55.708;37.478;2024-03-25T08:11:41;98324.56;;;11.35;39.64
49825;BME280;35714;55.708;37.478;2024-03-25T08:14:09;98326.38;;;11.19;40.74
49825;BME280;35714;55.708;37.478;2024-03-25T08:16:35;98324.56;;;11.35;40.99
49825;BME280;35714;55.708;37.478;2024-03-25T08:19:02;98325.94;;;11.53;41.09
49825;BME280;35714;55.708;37.478;2024-03-25T08:21:27;98337.13;;;11.87;40.67
49825;BME280;35714;55.708;37.478;2024-03-25T08:23:53;98330.66;;;12.04;39.73
49825;BME280;35714;55.708;37.478;2024-03-25T08:26:19;98323.56;;;11.82;38.82
49825;BME280;35714;55.708;37.478;2024-03-25T08:28:45;98331.91;;;11.50;39.25
49825;BME280;35714;55.708;37.478;2024-03-25T08:31:10;98337.56;;;11.38;39.09
49825;BME280;35714;55.708;37.478;2024-03-25T08:33:36;98345.69;;;11.28;38.79
49825;BME280;35714;55.708;37.478;2024-03-25T08:36:02;98337.41;;;10.92;39.24
49825;BME280;35714;55.708;37.478;2024-03-25T08:38:29;98344.81;;;10.59;40.82
49825;BME280;35714;55.708;37.478;2024-03-25T08:40:54;98347.09;;;10.72;41.28
49825;BME280;35714;55.708;37.478;2024-03-25T08:43:20;98343.44;;;11.09;40.77
49825;BME280;35714;55.708;37.478;2024-03-25T08:45:46;98350.66;;;11.51;38.99
49825;BME280;35714;55.708;37.478;2024-03-25T08:48:12;98347.78;;;12.04;37.52
49825;BME280;35714;55.708;37.478;2024-03-25T08:50:38;98353.75;;;12.58;37.00
49825;BME280;35714;55.708;37.478;2024-03-25T08:53:04;98349.63;;;12.60;37.00
49825;BME280;35714;55.708;37.478;2024-03-25T08:55:30;98354.00;;;12.46;37.48
49825;BME280;35714;55.708;37.478;2024-03-25T08:57:57;98352.94;;;12.47;36.92
49825;BME280;35714;55.708;37.478;2024-03-25T09:00:28;98361.59;;;11.87;37.53
49825;BME280;35714;55.708;37.478;2024-03-25T09:02:55;98371.25;;;11.37;38.67
49825;BME280;35714;55.708;37.478;2024-03-25T09:05:21;98364.63;;;11.12;38.67
49825;BME280;35714;55.708;37.478;2024-03-25T09:07:50;98363.94;;;10.84;39.60
49825;BME280;35714;55.708;37.478;2024-03-25T09:10:18;98373.53;;;10.97;39.51
49825;BME280;35714;55.708;37.478;2024-03-25T09:13:02;98367.41;;;11.28;38.71
49825;BME280;35714;55.708;37.478;2024-03-25T09:15:29;98381.63;;;11.71;36.89
49825;BME280;35714;55.708;37.478;2024-03-25T09:17:55;98380.97;;;11.23;38.10
49825;BME280;35714;55.708;37.478;2024-03-25T09:20:21;98386.06;;;11.09;39.25
49825;BME280;35714;55.708;37.478;2024-03-25T09:22:47;98387.47;;;11.27;39.30
49825;BME280;35714;55.708;37.478;2024-03-25T09:25:15;98395.97;;;11.46;38.62
49825;BME280;35714;55.708;37.478;2024-03-25T09:27:41;98390.25;;;11.42;38.02
49825;BME280;35714;55.708;37.478;2024-03-25T09:30:10;98391.81;;;11.23;39.11
49825;BME280;35714;55.708;37.478;2024-03-25T09:32:36;98398.91;;;11.34;39.35
49825;BME280;35714;55.708;37.478;2024-03-25T09:35:03;98400.09;;;11.69;39.49
49825;BME280;35714;55.708;37.478;2024-03-25T09:37:29;98406.22;;;12.43;38.61
49825;BME280;35714;55.708;37.478;2024-03-25T09:39:56;98411.44;;;13.51;36.03
49825;BME280;35714;55.708;37.478;2024-03-25T09:42:33;98402.41;;;14.11;35.85
49825;BME280;35714;55.708;37.478;2024-03-25T09:44:59;98395.41;;;14.68;35.47
49825;BME280;35714;55.708;37.478;2024-03-25T09:47:26;98413.88;;;15.73;34.24
49825;BME280;35714;55.708;37.478;2024-03-25T09:49:54;98408.09;;;15.80;31.96
49825;BME280;35714;55.708;37.478;2024-03-25T09:52:20;98415.56;;;15.26;31.77
49825;BME280;35714;55.708;37.478;2024-03-25T09:54:46;98424.41;;;14.54;32.55
49825;BME280;35714;55.708;37.478;2024-03-25T09:57:12;98416.13;;;13.95;33.02
49825;BME280;35714;55.708;37.478;2024-03-25T09:59:41;98409.88;;;13.34;34.43
49825;BME280;35714;55.708;37.478;2024-03-25T10:02:10;98407.78;;;13.00;34.53
49825;BME280;35714;55.708;37.478;2024-03-25T10:04:46;98410.53;;;12.85;35.57
49825;BME280;35714;55.708;37.478;2024-03-25T10:07:23;98408.38;;;12.67;35.21
49825;BME280;35714;55.708;37.478;2024-03-25T10:09:50;98427.41;;;12.51;34.49
49825;BME280;35714;55.708;37.478;2024-03-25T10:12:16;98422.50;;;12.07;35.67
49825;BME280;35714;55.708;37.478;2024-03-25T10:14:43;98424.59;;;11.79;36.24
49825;BME280;35714;55.708;37.478;2024-03-25T10:17:09;98427.25;;;11.64;35.96
49825;BME280;35714;55.708;37.478;2024-03-25T10:19:35;98426.56;;;11.31;37.14
49825;BME280;35714;55.708;37.478;2024-03-25T10:22:03;98415.75;;;11.41;37.86
49825;BME280;35714;55.708;37.478;2024-03-25T10:24:43;98422.38;;;11.66;36.74
49825;BME280;35714;55.708;37.478;2024-03-25T10:27:22;98430.50;;;11.61;36.79
49825;BME280;35714;55.708;37.478;2024-03-25T10:29:53;98420.34;;;11.35;36.96
49825;BME280;35714;55.708;37.478;2024-03-25T10:32:20;98418.19;;;11.43;37.76
49825;BME280;35714;55.708;37.478;2024-03-25T10:34:46;98429.03;;;12.21;37.36
49825;BME280;35714;55.708;37.478;2024-03-25T10:37:14;98422.47;;;12.99;35.62
49825;BME280;35714;55.708;37.478;2024-03-25T10:39:49;98431.50;;;13.70;34.71
49825;BME280;35714;55.708;37.478;2024-03-25T10:42:20;98425.03;;;14.46;34.22
49825;BME280;35714;55.708;37.478;2024-03-25T10:44:47;98427.97;;;15.85;32.19
49825;BME280;35714;55.708;37.478;2024-03-25T10:47:34;98433.06;;;16.82;29.60
49825;BME280;35714;55.708;37.478;2024-03-25T10:50:03;98432.38;;;16.57;28.37
49825;BME280;35714;55.708;37.478;2024-03-25T10:52:34;98427.25;;;15.99;29.66
49825;BME280;35714;55.708;37.478;2024-03-25T10:55:01;98436.31;;;15.27;29.87
49825;BME280;35714;55.708;37.478;2024-03-25T10:57:30;98430.97;;;14.53;31.09
49825;BME280;35714;55.708;37.478;2024-03-25T10:59:57;98431.75;;;13.79;31.99
49825;BME280;35714;55.708;37.478;2024-03-25T11:02:23;98438.47;;;13.27;32.90
49825;BME280;35714;55.708;37.478;2024-03-25T11:04:50;98430.41;;;12.70;33.81
49825;BME280;35714;55.708;37.478;2024-03-25T11:07:17;98429.03;;;12.52;34.86
49825;BME280;35714;55.708;37.478;2024-03-25T11:09:43;98444.84;;;12.45;34.44
49825;BME280;35714;55.708;37.478;2024-03-25T11:12:13;98436.06;;;12.02;34.54
49825;BME280;35714;55.708;37.478;2024-03-25T11:14:41;98433.22;;;11.55;35.64
49825;BME280;35714;55.708;37.478;2024-03-25T11:17:15;98427.66;;;11.30;36.41
49825;BME280;35714;55.708;37.478;2024-03-25T11:19:41;98441.16;;;11.78;36.63
49825;BME280;35714;55.708;37.478;2024-03-25T11:22:09;98430.13;;;12.20;35.41
49825;BME280;35714;55.708;37.478;2024-03-25T11:24:43;98430.59;;;13.25;35.10
49825;BME280;35714;55.708;37.478;2024-03-25T11:27:09;98436.97;;;14.55;32.46
49825;BME280;35714;55.708;37.478;2024-03-25T11:29:35;98435.50;;;15.50;31.22
49825;BME280;35714;55.708;37.478;2024-03-25T11:32:05;98443.13;;;16.68;30.20
49825;BME280;35714;55.708;37.478;2024-03-25T11:34:32;98443.28;;;17.51;27.93
49825;BME280;35714;55.708;37.478;2024-03-25T11:36:58;98450.53;;;18.25;27.87
49825;BME280;35714;55.708;37.478;2024-03-25T11:39:24;98445.97;;;19.11;27.09
49825;BME280;35714;55.708;37.478;2024-03-25T11:41:54;98458.63;;;20.18;26.90
49825;BME280;35714;55.708;37.478;2024-03-25T11:44:20;98453.63;;;21.29;25.16
49825;BME280;35714;55.708;37.478;2024-03-25T11:46:47;98443.78;;;21.58;21.87
49825;BME280;35714;55.708;37.478;2024-03-25T11:49:15;98455.94;;;21.18;23.38
49825;BME280;35714;55.708;37.478;2024-03-25T11:51:44;98459.66;;;21.22;21.97
49825;BME280;35714;55.708;37.478;2024-03-25T11:54:13;98451.94;;;20.54;22.63
49825;BME280;35714;55.708;37.478;2024-03-25T11:56:40;98456.56;;;19.75;24.11
49825;BME280;35714;55.708;37.478;2024-03-25T11:59:08;98454.25;;;18.88;25.38
49825;BME280;35714;55.708;37.478;2024-03-25T12:01:34;98457.13;;;18.47;25.57
49825;BME280;35714;55.708;37.478;2024-03-25T12:04:11;98455.22;;;18.11;25.50
49825;BME280;35714;55.708;37.478;2024-03-25T12:06:36;98461.09;;;17.07;26.58
49825;BME280;35714;55.708;37.478;2024-03-25T12:09:02;98464.38;;;17.09;27.07
49825;BME280;35714;55.708;37.478;2024-03-25T12:11:47;98457.00;;;18.29;26.96
49825;BME280;35714;55.708;37.478;2024-03-25T12:14:14;98465.88;;;19.57;26.25
49825;BME280;35714;55.708;37.478;2024-03-25T12:16:42;98461.00;;;19.94;25.05
49825;BME280;35714;55.708;37.478;2024-03-25T12:19:08;98467.97;;;19.51;24.72
49825;BME280;35714;55.708;37.478;2024-03-25T12:21:34;98464.88;;;19.13;25.85
49825;BME280;35714;55.708;37.478;2024-03-25T12:24:00;98471.53;;;19.52;25.96
49825;BME280;35714;55.708;37.478;2024-03-25T12:26:25;98476.38;;;20.04;25.04
49825;BME280;35714;55.708;37.478;2024-03-25T12:28:52;98473.50;;;20.52;25.01
49825;BME280;35714;55.708;37.478;2024-03-25T12:31:17;98479.00;;;21.05;24.26
49825;BME280;35714;55.708;37.478;2024-03-25T12:33:43;98475.41;;;21.13;23.97
49825;BME280;35714;55.708;37.478;2024-03-25T12:36:12;98477.72;;;20.41;23.53
49825;BME280;35714;55.708;37.478;2024-03-25T12:38:38;98470.25;;;20.24;24.01
49825;BME280;35714;55.708;37.478;2024-03-25T12:41:06;98480.47;;;19.66;23.99
49825;BME280;35714;55.708;37.478;2024-03-25T12:43:33;98477.19;;;18.70;25.40
49825;BME280;35714;55.708;37.478;2024-03-25T12:45:59;98474.03;;;18.03;26.20
49825;BME280;35714;55.708;37.478;2024-03-25T12:48:25;98464.50;;;17.59;25.86
49825;BME280;35714;55.708;37.478;2024-03-25T12:50:51;98470.13;;;16.93;26.41
49825;BME280;35714;55.708;37.478;2024-03-25T12:53:18;98472.81;;;17.26;26.91